Augusta, Illinois
Current Conditions -  °F | °C
As of 2:54 AM on Monday 20 Oct 2014 (Local Time) from KUIN Reporting Station
Clear Clear  
Wind Chill: 53°   Ceiling: Unl
Heat Index: 53°   Visibility: 10mi
Dew Point: 47°   Wind: 8mph
Humidity: 80%   Direction: 220°SW
Pressure: 29.93"   Gusts: NA
Location:  40.23°N, 90.95°W
Report Text: KUIN 200754Z AUTO 22007KT 10SM CLR 12/08 A2993 RMK AO2 SLP134 T01170083
Loading
Personal Weather Stations






























Interactive Weather Map
Tropical Storm Tracking
New forecast layout! Learn more

10-Day Weather Forecast

Advertisements
Track Severe Weather on mobile